Skip Navigation LinksHome page > Weather > Current weather Skip Navigation Links

Current Weather

Kansas City Intl, Kansas City, Mo.

For information only: do not use for flight planning or navigation.
Latest weather
Observation time Friday, February 28, 2020 5:53 AM CST
Local time Friday, February 28, 2020 6:15 AM CST
Flight conditions Visual Meteorological Conditions
Winds
Wind direction Southwest (230°)
Wind speed 12 mph
Visibility 9 mi.
Sky condition
Ceiling 10,000 ft. overcast
Cloud layer overcast 10,000 ft.
Temperature 31°F
Dewpoint 28°F
Altimeter 30.10 in.Hg
Pressure change last 3 hours0.04 in.Hg
Pressure falling more slowly
Derived measurements
Relative humidity 89%
Wind chill 22°F
Density altitude -1010 ft.
Sea-level pressure 30.12 in.Hg
Climate data
Temperature minimum, last 6 hours 25°F
Temperature maximum, last 6 hours 31°F
Remarks
Automated weather observing station with precipitation discriminator.
METAR KMCI 281153Z 23010KT 9SM OVC100 M01/M02 A3010 RMK AO2 SLP199 I6000 T10061022 11006 21039 56012

Settings

Location code

InnerDrive.Weather 4.0.6770.0 Release CLR 4.0.30319.42000
Copyright ©2018 Inner Drive Technology. All rights reserved. Portions Copyright ©1986-2018 David Braverman.

Find weather

Site navigation


Skip Navigation Links

Place info

Page info

PayPal - The safer, easier way to pay online!

Return home.

Copyright ©2020 Inner Drive Technology. Purveyors of fine, hand-crafted computer software. Page printed 2020-02-28T12:15:24 UTC.